Copan — V3SE4 — position and weather

sailwx.info

Track history (hours):
 
Tides and Currents Weather Stations Pressure Air Temp Water Temp Dewpoint Dewpoint Depression Visibility Wind Speed Wind Dir Waves Ship Positions

Copan

Last reported at 2018-Feb-25 11:15 UTC. Time now 2018-Feb-25 18:06 UTC.
Position N 45°05' E 036°30'.

Length 147 m; draft 7.7 m.

Type: Cargo ship. MMSI: 312359000.

Date/timePositionNaut miles runAvg speedWind from/ knotsBaromVisibWave heightAir tempDewpointWater temp
2018-Feb-25 11:15N 45°05' E 036°30'411.9
2018-Feb-25 10:55N 45°09' E 036°29'5 9.4
2018-Feb-25 10:23N 45°14' E 036°28'3 8.8
2018-Feb-25 10:00N 45°18' E 036°28'5 9.6
2018-Feb-25 09:30N 45°20' E 036°35'510.0
2018-Feb-25 09:00N 45°23' E 036°40'4 8.0
2018-Feb-25 08:30N 45°27' E 036°41'5 9.3
2018-Feb-25 08:01N 45°31' E 036°39'  
2018-Feb-20 10:20N 45°42' E 036°46'411.8
2018-Feb-20 09:59N 45°37' E 036°46'611.9
2018-Feb-20 09:30N 45°32' E 036°45'611.4
2018-Feb-20 09:00N 45°27' E 036°42'4 8.9
2018-Feb-20 08:30N 45°22' E 036°40'5 9.2
2018-Feb-20 08:00N 45°20' E 036°34'510.1
2018-Feb-20 07:30N 45°17' E 036°28'5 9.5
2018-Feb-20 07:00N 45°12' E 036°28'3 6.6
2018-Feb-20 06:30N 45°09' E 036°28'  
2018-Feb-17 11:01N 37°36' E 024°11'011.0
2018-Feb-17 11:00N 37°36' E 024°10'2910.7
2018-Feb-17 08:16N 37°18' E 023°42'2011.5
2018-Feb-17 06:31N 37°00' E 023°28'012.2
2018-Feb-17 06:30N 37°00' E 023°28'  
Track history (hours):
 
Tides and Currents Weather Stations Pressure Air Temp Water Temp Dewpoint Dewpoint Depression Visibility Wind Speed Wind Dir Waves Ship Positions

Copan

Last reported at 2018-Feb-25 11:15 UTC. Time now 2018-Feb-25 18:06 UTC.
Position N 45°05' E 036°30'.

Length 147 m; draft 7.7 m.

Type: Cargo ship. MMSI: 312359000.

Date/timePositionNaut miles runAvg speedWind from/ knotsBaromVisibWave heightAir tempDewpointWater temp
2018-Feb-25 11:15N 45°05' E 036°30'411.9
2018-Feb-25 10:55N 45°09' E 036°29'5 9.4
2018-Feb-25 10:23N 45°14' E 036°28'3 8.8
2018-Feb-25 10:00N 45°18' E 036°28'5 9.6
2018-Feb-25 09:30N 45°20' E 036°35'510.0
2018-Feb-25 09:00N 45°23' E 036°40'4 8.0
2018-Feb-25 08:30N 45°27' E 036°41'5 9.3
2018-Feb-25 08:01N 45°31' E 036°39'  
2018-Feb-20 10:20N 45°42' E 036°46'411.8
2018-Feb-20 09:59N 45°37' E 036°46'611.9
2018-Feb-20 09:30N 45°32' E 036°45'611.4
2018-Feb-20 09:00N 45°27' E 036°42'4 8.9
2018-Feb-20 08:30N 45°22' E 036°40'5 9.2
2018-Feb-20 08:00N 45°20' E 036°34'510.1
2018-Feb-20 07:30N 45°17' E 036°28'5 9.5
2018-Feb-20 07:00N 45°12' E 036°28'3 6.6
2018-Feb-20 06:30N 45°09' E 036°28'  
2018-Feb-17 11:01N 37°36' E 024°11'011.0
2018-Feb-17 11:00N 37°36' E 024°10'2910.7
2018-Feb-17 08:16N 37°18' E 023°42'2011.5
2018-Feb-17 06:31N 37°00' E 023°28'012.2
2018-Feb-17 06:30N 37°00' E 023°28'  

Dump ship's entire track history